Tiempo atmosférico en la estación meteorológica de Cenicero, La Rioja (429 m.)

Fecha
DESCASC
Temp. máxima en grados centígrados (hora)
DESCASC
Temp. mínima en grados centígrados (hora)
DESCASC
Temp. media en grados centígrados
DESCASC
Racha de viento máxima en m/sg (hora)
DESCASC
Velocidad máxima media en intervalos de 10 minutos(hora)
DESCASC
Precipitaciones diarias en mm
DESCASC
Precipitaciones de 00:00 a 06:00 en mm
DESCASC
Precipitaciones de 06:00 a 12:00 en mm
DESCASC
Precipitaciones de 12:00 a 18:00 en mm
DESCASC
Precipitaciones de 18:00 a 24:00 en mm
DESCASC
17-09-2017 21.9 (16:40) 6.3 (08:10) 14.1 6.39 (17:10) 3.61 (15:50) 0 0 0 0 0
16-09-2017 17.5 (15:00) 6.9 (07:20) 12.2 9.72 (15:20) 3.89 (14:40) 0 0 0 0 0
15-09-2017 17.5 (16:20) 10.5 (08:30) 14 9.72 (16:30) 5.56 (16:00) 0 0 0 0 0
14-09-2017 19.1 (00:00) 13.3 (00:00) 16.2 7.78 (20:00) 4.17 (20:00) 0 0 0 0 0
13-09-2017 29 (17:40) 11.4 (00:00) 20.2 6.67 (23:40) 3.61 (23:40) 0 0 0 0 0
12-09-2017 26.4 (18:00) 13.1 (00:00) 19.8 6.39 (11:00) 3.61 (15:20) 0 0 0 0 0
11-09-2017 23.6 (14:50) 15 (00:00) 19.3 6.94 (16:20) 3.89 (13:30) 0 0 0 0 0
10-09-2017 22.4 (17:10) 11.9 (00:00) 17.1 10 (15:00) 6.11 (10:20) 0 0 0 0 0
09-09-2017 19.3 (16:30) 12.4 (00:00) 15.8 10 (17:00) 5.28 (17:20) 3.2 0 1.4 1.6 0.2
08-09-2017 28.4 (18:30) 9.9 (00:00) 19.1 6.39 (22:40) 3.06 (22:40) 0 0 0 0 0
07-09-2017 23.3 (17:20) 11.9 (00:00) 17.6 8.61 (15:40) 3.89 (15:00) 0 0 0 0 0
06-09-2017 22.8 (16:20) 15.1 (00:00) 18.9 7.5 (18:10) 4.17 (12:30) 0 0 0 0 0
05-09-2017 30.6 (16:50) 14 (00:00) 22.3 7.78 (18:50) 3.89 (18:30) 0 0 0 0 0
04-09-2017 27.8 (18:40) 16.8 (00:00) 22.3 5.83 (23:00) 3.06 (19:20) 0 0 0 0 0
03-09-2017 27.2 (17:40) 12.8 (00:00) 20 5.28 (23:10) 2.78 (23:10) 0 0 0 0 0
02-09-2017 25.3 (18:40) 11.5 (00:00) 18.4 5.83 (10:30) 3.61 (11:40) 0 0 0 0 0
01-09-2017 22.7 (16:10) 11.4 (00:00) 17.1 8.89 (19:30) 5.28 (19:30) 0 0 0 0 0
31-08-2017 21.9 (16:40) 13.8 (00:00) 17.8 5.83 (11:00) 3.06 (05:40) 2.2 2.2 0 0 0
30-08-2017 26.6 (16:10) 16 (00:00) 21.3 10 (20:30) 4.72 (20:40) 9.6 0 0 0.2 9.4
29-08-2017 26.3 (17:00) 16 (00:00) 21.1 8.61 (17:40) 4.72 (18:00) 1.2 0.4 0 0 0.8
28-08-2017 22.8 (15:20) 16.9 (00:00) 19.8 10 (17:00) 5.28 (17:10) 14.6 0 5.6 5.2 3.8
27-08-2017 26.7 (00:00) 18 (00:00) 22.4 10.56 (21:00) 6.11 (00:40) 12.4 0 0 12.4 0
26-08-2017 32.2 (19:20) 16 (00:00) 24.1 7.78 (23:50) 4.17 (13:40) 0 0 0 0 0
25-08-2017 33.6 (17:50) 15.9 (00:00) 24.7 8.61 (21:50) 5 (13:10) 0 0 0 0 0
24-08-2017 32 (17:20) 18.1 (00:00) 25.1 11.39 (17:00) 6.39 (14:00) 0 0 0 0 0
23-08-2017 31 (17:30) 18.6 (00:00) 24.8 8.61 (19:20) 4.72 (18:00) 0.2 0 0 0.2 0
22-08-2017 35.4 (18:10) 21.2 (00:00) 28.3 10.28 (04:20) 5 (04:30) 0 0 0 0 0

Gráficas

Temp. máximas Temp. mínimas Temp. medias Precipitaciones Rachas de viento máximas Velocidades máximas media en intervalos de 10 minutos

Datos horarios

Fecha y hora oficial Temperatura (ºC) Velocidad del viento (km/h) Dirección del viento Racha (km/h) Dirección de racha Precipitación (mm) Presión (hPa) Tendencia (hPa) Humedad (%)
2017-09-20 23:00:00 16.8 3 Sudeste 5 Sudeste 0 -- -- 41
2017-09-20 22:00:00 18.4 0 Calma 5 Este 0 -- -- 38
2017-09-20 21:00:00 20.8 0 Calma 8 Este 0 -- -- 36
2017-09-20 20:00:00 24.5 6 Sudeste 15 Este 0 -- -- 25
2017-09-20 19:00:00 26.8 5 Sudeste 12 Este 0 -- -- 22
2017-09-20 18:00:00 27.5 3 Noroeste 9 Oeste 0 -- -- 21
2017-09-20 17:00:00 27 3 Oeste 8 Oeste 0 -- -- 22
2017-09-20 16:00:00 25.7 3 Noroeste 10 Oeste 0 -- -- 24
2017-09-20 15:00:00 23.7 4 Oeste 9 Oeste 0 -- -- 31
2017-09-20 14:00:00 21.4 4 Noroeste 9 Sudoeste 0 -- -- 31
2017-09-20 13:00:00 18.8 5 Noroeste 12 Noroeste 0 -- -- 47
2017-09-20 12:00:00 15.8 5 Oeste 12 Oeste 0 -- -- 59
2017-09-20 11:00:00 12.3 5 Noroeste 12 Noroeste 0 -- -- 72
2017-09-20 10:00:00 9 4 Noroeste 10 Noroeste 0 -- -- 84
2017-09-20 09:00:00 6.1 2 Noroeste 10 Oeste 0 -- -- 94
2017-09-20 08:00:00 5.5 2 Oeste 8 Oeste 0 -- -- 94
2017-09-20 07:00:00 5.9 3 Noroeste 6 Noroeste 0 -- -- 94
2017-09-20 06:00:00 6.3 3 Noroeste 6 Oeste 0 -- -- 93
2017-09-20 05:00:00 6.9 5 Oeste 8 Oeste 0 -- -- 91
2017-09-20 04:00:00 7.6 3 Oeste 4 Oeste 0 -- -- 91
2017-09-20 03:00:00 8.2 0 Calma 2 Sudoeste 0 -- -- 91
2017-09-20 02:00:00 8.9 0 Calma 3 Norte 0 -- -- 87
2017-09-20 01:00:00 9.9 0 Calma 4 Oeste 0 -- -- 84
2017-09-20 00:00:00 11.4 0 Calma 7 Sudoeste 0 -- -- 74
2017-09-19 23:00:00 12.7 0 Calma 8 Sur 0 -- -- 68
2017-09-19 22:00:00 14 8 Sudoeste 11 Sudoeste 0 -- -- 66
2017-09-19 21:00:00 16.3 0 Calma 11 Nordeste 0 -- -- 55
2017-09-19 20:00:00 18.3 3 Nordeste 11 Noroeste 0 -- -- 49
2017-09-19 19:00:00 20.2 7 Noroeste 22 Norte 0 -- -- 42
2017-09-19 18:00:00 21 7 Oeste 18 Sudoeste 0 -- -- 38
2017-09-19 17:00:00 20.7 9 Noroeste 21 Noroeste 0 -- -- 39
2017-09-19 16:00:00 20.4 11 Noroeste 22 Oeste 0 -- -- 42
2017-09-19 15:00:00 19.8 10 Oeste 24 Noroeste 0 -- -- 40
2017-09-19 14:00:00 19 11 Oeste 23 Noroeste 0 -- -- 46
2017-09-19 13:00:00 17.7 12 Noroeste 23 Noroeste 0 -- -- 52
2017-09-19 12:00:00 16.8 8 Oeste 22 Oeste 0 -- -- 62
2017-09-19 11:00:00 15.2 12 Oeste 22 Oeste 0 -- -- 68
2017-09-19 10:00:00 13.4 8 Noroeste 15 Noroeste 0 -- -- 81
2017-09-19 09:00:00 10.8 5 Oeste 9 Noroeste 0 -- -- 93
2017-09-19 08:00:00 10.2 0 Calma 9 Oeste 0 -- -- 92
2017-09-19 07:00:00 10.7 5 Oeste 10 Oeste 0 -- -- 92
2017-09-19 06:00:00 11.4 0 Calma 10 Oeste 0 -- -- 90
2017-09-19 05:00:00 12.1 4 Noroeste 16 Sudoeste 0 -- -- 88
2017-09-19 04:00:00 13 6 Oeste 18 Sudoeste 0 -- -- 85
2017-09-19 03:00:00 13.9 10 Oeste 16 Oeste 0 -- -- 84
2017-09-19 02:00:00 14 7 Oeste 10 Oeste 0 -- -- 83
2017-09-19 01:00:00 14.5 5 Oeste 21 Oeste 0 -- -- 87
2017-09-19 00:00:00 15.3 12 Noroeste 19 Noroeste 0 -- -- 80
2017-09-18 23:00:00 15.3 10 Oeste 19 Oeste 0 -- -- 81
2017-09-18 22:00:00 15.4 8 Sudoeste 15 Sudoeste 0 -- -- 84
2017-09-18 21:00:00 16.1 6 Sudoeste 22 Oeste 0.2 -- -- 82
2017-09-18 20:00:00 17.2 5 Noroeste 13 Noroeste 0 -- -- 69
2017-09-18 19:00:00 18.6 6 Norte 18 Nordeste 0 -- -- 62
2017-09-18 18:00:00 19.4 5 Nordeste 23 Noroeste 0 -- -- 59
2017-09-18 17:00:00 19.8 12 Noroeste 24 Noroeste 0 -- -- 52
2017-09-18 16:00:00 20.1 13 Noroeste 24 Noroeste 0 -- -- 52
2017-09-18 15:00:00 19.2 13 Noroeste 27 Noroeste 0 -- -- 57
2017-09-18 14:00:00 17.7 11 Noroeste 22 Oeste 0 -- -- 65
2017-09-18 13:00:00 16.5 9 Noroeste 15 Oeste 0 -- -- 69
2017-09-18 12:00:00 15.2 7 Noroeste 16 Oeste 0 -- -- 78
2017-09-18 11:00:00 13.8 7 Noroeste 13 Oeste 0 -- -- 82
2017-09-18 10:00:00 12.2 0 Calma 8 Oeste 0 -- -- 95
2017-09-18 09:00:00 11.4 2 Noroeste 4 Oeste 0 -- -- 96
2017-09-18 08:00:00 11.1 2 Oeste 4 Oeste 0 -- -- 95
2017-09-18 07:00:00 11.2 2 Nordeste 5 Sudoeste 0.6 -- -- 93
2017-09-18 06:00:00 11.5 2 Oeste 8 Oeste 0.8 -- -- 91
2017-09-18 05:00:00 11.9 3 Norte 10 Noroeste 0.2 -- -- 87
2017-09-18 04:00:00 12.4 3 Noroeste 6 Oeste 0 -- -- 79
2017-09-18 03:00:00 12.1 0 Calma 8 Oeste 0 -- -- 78
2017-09-18 02:00:00 12.2 0 Calma 5 Sudoeste 0 -- -- 77
2017-09-18 01:00:00 13.1 0 Calma 8 Sudeste 0 -- -- 69
2017-09-18 00:00:00 14.1 6 Sur 14 Sudoeste 0 -- -- 65
2017-09-17 23:00:00 14.4 3 Oeste 9 Sur 0 -- -- 64
2017-09-17 22:00:00 16 3 Sudoeste 11 Sur 0 -- -- 54
2017-09-17 21:00:00 17.7 3 Oeste 7 Sudeste 0 -- -- 48
2017-09-17 20:00:00 19.5 5 Noroeste 13 Oeste 0 -- -- 43
2017-09-17 19:00:00 21.6 5 Norte 19 Oeste 0 -- -- 33
2017-09-17 18:00:00 21.1 10 Noroeste 23 Noroeste 0 -- -- 31
2017-09-17 17:00:00 21.4 10 Noroeste 22 Noroeste 0 -- -- 33
2017-09-17 16:00:00 20.6 8 Oeste 23 Noroeste 0 -- -- 34
2017-09-17 15:00:00 20.4 6 Oeste 20 Oeste 0 -- -- 34
2017-09-17 14:00:00 18.5 8 Oeste 23 Oeste 0 -- -- 43
2017-09-17 13:00:00 17 11 Noroeste 19 Noroeste 0 -- -- 48
2017-09-17 12:00:00 15.1 6 Noroeste 13 Oeste 0 -- -- 58
2017-09-17 11:00:00 12.7 8 Noroeste 14 Noroeste 0 -- -- 67
2017-09-17 10:00:00 9.6 5 Noroeste 10 Noroeste 0 -- -- 81
2017-09-17 09:00:00 7 2 Oeste 5 Noroeste 0 -- -- 94
2017-09-17 08:00:00 6.4 2 Noroeste 4 Sudoeste 0 -- -- 92
2017-09-17 07:00:00 6.9 2 Sudoeste 5 Sudoeste 0 -- -- 91
2017-09-17 06:00:00 7.4 0 Calma 5 Sudoeste 0 -- -- 91
2017-09-17 05:00:00 7.8 3 Oeste 6 Sudoeste 0 -- -- 91
2017-09-17 04:00:00 7.9 2 Oeste 10 Oeste 0 -- -- 87
2017-09-17 03:00:00 8.5 0 Calma 7 Sudoeste 0 -- -- 85
2017-09-17 02:00:00 9.5 0 Calma 6 Noroeste 0 -- -- 82
2017-09-17 01:00:00 10.2 0 Calma 11 Sudoeste 0 -- -- 77
2017-09-17 00:00:00 11.2 5 Sudoeste 12 Sudoeste 0 -- -- 72
2017-09-16 23:00:00 11.3 3 Sudoeste 10 Sudoeste 0 -- -- 72
2017-09-16 22:00:00 11.7 4 Sudoeste 8 Sudoeste 0 -- -- 67
2017-09-16 21:00:00 12.9 0 Calma 13 Norte 0 -- -- 62
2017-09-16 20:00:00 14.7 6 Norte 15 Noroeste 0 -- -- 55
2017-09-16 19:00:00 16.4 8 Noroeste 17 Oeste 0 -- -- 49
2017-09-16 18:00:00 16.6 4 Noroeste 18 Norte 0 -- -- 49
2017-09-16 17:00:00 16.6 11 Norte 27 Norte 0 -- -- 49
2017-09-16 16:00:00 16 14 Noroeste 35 Noroeste 0 -- -- 52
2017-09-16 15:00:00 17.5 11 Noroeste 30 Oeste 0 -- -- 42
2017-09-16 14:00:00 16.2 11 Noroeste 20 Oeste 0 -- -- 46
2017-09-16 13:00:00 15.9 11 Oeste 22 Noroeste 0 -- -- 49
2017-09-16 12:00:00 14.6 10 Noroeste 22 Oeste 0 -- -- 55
2017-09-16 11:00:00 12.3 6 Noroeste 18 Norte 0 -- -- 68
2017-09-16 10:00:00 10.7 8 Oeste 14 Noroeste 0 -- -- 74
2017-09-16 09:00:00 8.5 4 Oeste 9 Oeste 0 -- -- 84
2017-09-16 08:00:00 7.2 6 Oeste 13 Oeste 0 -- -- 85
2017-09-16 07:00:00 7.1 7 Noroeste 12 Noroeste 0 -- -- 89
2017-09-16 06:00:00 7.5 2 Noroeste 5 Oeste 0 -- -- 89
2017-09-16 05:00:00 8.2 4 Noroeste 8 Oeste 0 -- -- 86
2017-09-16 04:00:00 8.7 3 Noroeste 5 Noroeste 0 -- -- 86
2017-09-16 03:00:00 8.7 2 Nordeste 8 Oeste 0 -- -- 85
2017-09-16 02:00:00 9.3 0 Calma 5 Noroeste 0 -- -- 83
2017-09-16 01:00:00 10.4 4 Sudoeste 8 Sudoeste 0 -- -- 77
2017-09-16 00:00:00 11.1 3 Oeste 10 Oeste 0 -- -- 75
2017-09-15 23:00:00 11.1 3 Oeste 11 Oeste 0 -- -- 73
2017-09-15 22:00:00 11.6 2 Noroeste 13 Noroeste 0 -- -- 71
2017-09-15 21:00:00 12.6 7 Norte 20 Norte 0 -- -- 66
2017-09-15 20:00:00 14 10 Noroeste 24 Oeste 0 -- -- 61
2017-09-15 19:00:00 15.1 15 Noroeste 30 Noroeste 0 -- -- 57
2017-09-15 18:00:00 15.3 14 Norte 34 Noroeste 0 -- -- 56
2017-09-15 17:00:00 16 16 Noroeste 35 Noroeste 0 -- -- 54
2017-09-15 16:00:00 17.3 20 Noroeste 34 Noroeste 0 -- -- 47
2017-09-15 15:00:00 17.3 10 Noroeste 31 Noroeste 0 -- -- 48
2017-09-15 14:00:00 16.5 12 Noroeste 28 Noroeste 0 -- -- 51
2017-09-15 13:00:00 17 11 Oeste 27 Oeste 0 -- -- 53
2017-09-15 12:00:00 15.6 9 Oeste 26 Oeste 0 -- -- 57
2017-09-15 11:00:00 14.1 13 Oeste 26 Sudoeste 0 -- -- 66
2017-09-15 10:00:00 13 16 Oeste 27 Oeste 0 -- -- 67
2017-09-15 09:00:00 11.3 4 Oeste 14 Oeste 0 -- -- 77
2017-09-15 08:00:00 11.1 11 Oeste 19 Oeste 0 -- -- 74
2017-09-15 07:00:00 11.2 7 Sudoeste 16 Sudoeste 0 -- -- 75
2017-09-15 06:00:00 10.9 9 Sudoeste 19 Sudoeste 0 -- -- 78
2017-09-15 05:00:00 11.7 6 Sudoeste 17 Oeste 0 -- -- 76
2017-09-15 04:00:00 11.5 6 Sudoeste 15 Oeste 0 -- -- 78
2017-09-15 03:00:00 12.1 8 Oeste 17 Oeste 0 -- -- 75
2017-09-15 02:00:00 12.7 6 Oeste 15 Noroeste 0 -- -- 73
2017-09-15 01:00:00 13.2 4 Oeste 13 Oeste 0 -- -- 65
2017-09-15 00:00:00 13.4 4 Oeste 12 Oeste 0 -- -- 63
2017-09-14 23:00:00 13.4 2 Noroeste 7 Oeste 0 -- -- 66
2017-09-14 22:00:00 14 0 Calma 11 Norte 0 -- -- 63
2017-09-14 21:00:00 15 5 Norte 19 Norte 0 -- -- 62
2017-09-14 20:00:00 15.6 15 Norte 28 Norte 0 -- -- 57
2017-09-14 19:00:00 17.3 8 Oeste 16 Oeste 0 -- -- 56
2017-09-14 18:00:00 16.9 8 Noroeste 16 Noroeste 0 -- -- 58
2017-09-14 17:00:00 16.4 7 Noroeste 22 Nordeste 0 -- -- 62
2017-09-14 16:00:00 16.6 6 Norte 17 Noroeste 0 -- -- 58
2017-09-14 15:00:00 17.1 5 Oeste 13 Norte 0 -- -- 59
2017-09-14 14:00:00 16.1 6 Noroeste 19 Nordeste 0 -- -- 64
2017-09-14 13:00:00 15.5 5 Nordeste 15 Oeste 0 -- -- 69
2017-09-14 12:00:00 15.1 10 Oeste 26 Nordeste 0 -- -- 71
2017-09-14 11:00:00 16.1 7 Norte 21 Nordeste 0 -- -- 70
2017-09-14 10:00:00 15.9 11 Norte 27 Norte 0 -- -- 77
2017-09-14 09:00:00 17.2 6 Sudoeste 15 Oeste 0 -- -- 81
2017-09-14 08:00:00 16.5 8 Oeste 20 Sudoeste 0 -- -- 84
2017-09-14 07:00:00 15.7 8 Sudoeste 17 Sudoeste 0 -- -- 87
2017-09-14 06:00:00 15.7 6 Sudoeste 20 Sudoeste 0 -- -- 87
2017-09-14 05:00:00 15.6 6 Sudoeste 16 Sudoeste 0 -- -- 88
2017-09-14 04:00:00 15.9 9 Sudoeste 15 Sudoeste 0 -- -- 86
2017-09-14 03:00:00 16.6 6 Sudoeste 15 Sudoeste 0 -- -- 83
2017-09-14 02:00:00 17.4 5 Sudoeste 13 Sudoeste 0 -- -- 81
2017-09-14 01:00:00 18 6 Sudoeste 18 Sur 0 -- -- 79
2017-09-14 00:00:00 19.1 11 Sudoeste 24 Sudoeste 0 -- -- 76
2017-09-13 23:00:00 20.4 9 Sudoeste 22 Sudoeste 0 -- -- 71
2017-09-13 22:00:00 22.1 7 Sudoeste 13 Sudoeste 0 -- -- 62
2017-09-13 21:00:00 24.8 0 Calma 12 Este 0 -- -- 48
2017-09-13 20:00:00 27.2 8 Este 19 Este 0 -- -- 41
2017-09-13 19:00:00 28.5 10 Este 20 Este 0 -- -- 37
2017-09-13 18:00:00 28.9 9 Este 18 Este 0 -- -- 36
2017-09-13 17:00:00 28.7 7 Sudeste 21 Este 0 -- -- 36
2017-09-13 16:00:00 27.7 8 Sudeste 19 Este 0 -- -- 39
2017-09-13 15:00:00 26.3 7 Este 18 Este 0 -- -- 41
2017-09-13 14:00:00 24.7 8 Este 20 Este 0 -- -- 45
2017-09-13 13:00:00 22.8 9 Este 18 Este 0 -- -- 50
2017-09-13 12:00:00 20.7 8 Sudeste 15 Sudeste 0 -- -- 58
2017-09-13 11:00:00 17.7 3 Nordeste 7 Este 0 -- -- 72
2017-09-13 10:00:00 14.7 0 Calma 5 Norte 0 -- -- 84
2017-09-13 09:00:00 12.4 3 Oeste 5 Noroeste 0 -- -- 95
2017-09-13 08:00:00 11.5 0 Calma 5 Oeste 0 -- -- 94
2017-09-13 07:00:00 12 3 Oeste 6 Sudoeste 0 -- -- 93
2017-09-13 06:00:00 12.2 0 Calma 6 Oeste 0 -- -- 92
2017-09-13 05:00:00 12.7 0 Calma 5 Sudoeste 0 -- -- 90
2017-09-13 04:00:00 13.3 2 Oeste 6 Sudoeste 0 -- -- 90
2017-09-13 03:00:00 14 0 Calma 3 Oeste 0 -- -- 88
2017-09-13 02:00:00 14.8 2 Sudoeste 6 Sudoeste 0 -- -- 81
2017-09-13 01:00:00 16 3 Sudoeste 5 Sudoeste 0 -- -- 76
2017-09-13 00:00:00 17.1 0 Calma 5 Nordeste 0 -- -- 71
2017-09-12 23:00:00 18 2 Oeste 7 Sudoeste 0 -- -- 69
2017-09-12 22:00:00 19.2 3 Sur 10 Sudoeste 0 -- -- 64
2017-09-12 21:00:00 20.7 4 Sudoeste 9 Sudoeste 0 -- -- 56
2017-09-12 20:00:00 22.7 4 Nordeste 21 Este 0 -- -- 49
2017-09-12 19:00:00 25.1 7 Norte 14 Nordeste 0 -- -- 40
2017-09-12 18:00:00 26.4 3 Sur 14 Noroeste 0 -- -- 33
2017-09-12 17:00:00 25.1 3 Nordeste 17 Oeste 0 -- -- 36
2017-09-12 16:00:00 24.3 6 Oeste 22 Noroeste 0 -- -- 39
2017-09-12 15:00:00 22.9 5 Norte 22 Oeste 0 -- -- 44
2017-09-12 14:00:00 21.6 5 Noroeste 17 Sudoeste 0 -- -- 47
2017-09-12 13:00:00 20.2 7 Noroeste 19 Oeste 0 -- -- 51
2017-09-12 12:00:00 18.8 8 Oeste 20 Oeste 0 -- -- 58
2017-09-12 11:00:00 17.4 12 Oeste 23 Oeste 0 -- -- 63
2017-09-12 10:00:00 14.8 6 Noroeste 10 Noroeste 0 -- -- 79
2017-09-12 09:00:00 13.3 3 Noroeste 8 Sudoeste 0 -- -- 87
2017-09-12 08:00:00 13.3 3 Noroeste 9 Oeste 0 -- -- 85
2017-09-12 07:00:00 13.6 0 Calma 6 Noroeste 0 -- -- 89
2017-09-12 06:00:00 14.3 5 Oeste 10 Oeste 0 -- -- 87
2017-09-12 05:00:00 14.5 8 Oeste 14 Sudoeste 0 -- -- 83
2017-09-12 04:00:00 14.6 5 Oeste 15 Oeste 0 -- -- 83
2017-09-12 03:00:00 15.3 6 Noroeste 15 Norte 0 -- -- 75
2017-09-12 02:00:00 15.9 8 Oeste 18 Noroeste 0 -- -- 74
2017-09-12 01:00:00 16.3 8 Oeste 12 Oeste 0 -- -- 72
2017-09-12 00:00:00 16.5 3 Noroeste 8 Noroeste 0 -- -- 72
2017-09-11 23:00:00 16.8 4 Noroeste 10 Noroeste 0 -- -- 71
2017-09-11 22:00:00 17.4 3 Norte 13 Norte 0 -- -- 67
2017-09-11 21:00:00 17.8 5 Oeste 10 Oeste 0 -- -- 67
2017-09-11 20:00:00 18.2 4 Noroeste 24 Norte 0 -- -- 67
2017-09-11 19:00:00 20.2 8 Noroeste 19 Noroeste 0 -- -- 61
2017-09-11 18:00:00 21 9 Norte 21 Noroeste 0 -- -- 58
2017-09-11 17:00:00 21.4 10 Noroeste 25 Norte 0 -- -- 58
2017-09-11 16:00:00 22.1 12 Norte 22 Nordeste 0 -- -- 57
2017-09-11 15:00:00 23.3 5 Noroeste 24 Noroeste 0 -- -- 52
2017-09-11 14:00:00 22.5 10 Noroeste 25 Oeste 0 -- -- 56
2017-09-11 13:00:00 21 11 Noroeste 23 Oeste 0 -- -- 64
2017-09-11 12:00:00 18.9 9 Noroeste 21 Noroeste 0 -- -- 72
2017-09-11 11:00:00 18.4 8 Noroeste 19 Noroeste 0 -- -- 74
2017-09-11 10:00:00 17.8 7 Noroeste 15 Oeste 0 -- -- 76
2017-09-11 09:00:00 16.1 6 Oeste 14 Oeste 0 -- -- 79
2017-09-11 08:00:00 15.7 3 Oeste 13 Noroeste 0 -- -- 80
2017-09-11 07:00:00 15.5 3 Noroeste 12 Sudoeste 0 -- -- 81
2017-09-11 06:00:00 15.3 0 Calma 6 Oeste 0 -- -- 84
2017-09-11 05:00:00 15.7 5 Oeste 7 Oeste 0 -- -- 85
2017-09-11 04:00:00 16.5 2 Norte 5 Sudoeste 0 -- -- 82
2017-09-11 03:00:00 16.5 0 Calma 5 Oeste 0 -- -- 79
2017-09-11 02:00:00 16.8 0 Calma 4 Nordeste 0 -- -- 74
2017-09-11 01:00:00 16.6 0 Calma 6 Nordeste 0 -- -- 75
2017-09-11 00:00:00 16.7 4 Oeste 10 Noroeste 0 -- -- 72
2017-09-10 23:00:00 17.6 5 Noroeste 16 Sudoeste 0 -- -- 64
2017-09-10 22:00:00 18.2 11 Oeste 20 Sudoeste 0 -- -- 59
2017-09-10 21:00:00 18.5 7 Sudoeste 19 Oeste 0 -- -- 58
2017-09-10 20:00:00 19 2 Noroeste 19 Noroeste 0 -- -- 55
2017-09-10 19:00:00 21 7 Oeste 14 Norte 0 -- -- 43
2017-09-10 18:00:00 21.6 9 Noroeste 21 Oeste 0 -- -- 40
2017-09-10 17:00:00 21.9 12 Noroeste 30 Norte 0 -- -- 40
2017-09-10 16:00:00 20.7 15 Noroeste 30 Noroeste 0 -- -- 42
2017-09-10 15:00:00 19.7 17 Noroeste 36 Noroeste 0 -- -- 45
2017-09-10 14:00:00 18.7 16 Noroeste 32 Oeste 0 -- -- 47
2017-09-10 13:00:00 17.2 13 Noroeste 32 Noroeste 0 -- -- 58
2017-09-10 12:00:00 16.1 13 Noroeste 36 Oeste 0 -- -- 61
2017-09-10 11:00:00 15.2 15 Oeste 35 Oeste 0 -- -- 64
2017-09-10 10:00:00 14.6 17 Oeste 31 Oeste 0 -- -- 65
2017-09-10 09:00:00 13.5 14 Oeste 24 Oeste 0 -- -- 71
2017-09-10 08:00:00 13.1 16 Oeste 28 Sudoeste 0 -- -- 74
2017-09-10 07:00:00 13 13 Oeste 24 Oeste 0 -- -- 74
2017-09-10 06:00:00 13.1 10 Oeste 23 Oeste 0 -- -- 74
2017-09-10 05:00:00 12.8 9 Oeste 25 Sudoeste 0 -- -- 79
2017-09-10 04:00:00 12.4 12 Oeste 24 Oeste 0 -- -- 80
2017-09-10 03:00:00 12 6 Noroeste 14 Oeste 0 -- -- 87
2017-09-10 02:00:00 12 7 Sudoeste 25 Sudoeste 0 -- -- 87
2017-09-10 01:00:00 12.1 11 Oeste 22 Oeste 0 -- -- 88
2017-09-10 00:00:00 12.4 12 Noroeste 23 Oeste 0.2 -- -- 86
2017-09-09 23:00:00 14 10 Oeste 19 Oeste 0 -- -- 70
2017-09-09 22:00:00 14 9 Oeste 19 Noroeste 0 -- -- 70
2017-09-09 21:00:00 14.9 10 Noroeste 26 Noroeste 0 -- -- 60
2017-09-09 20:00:00 15.8 14 Noroeste 26 Noroeste 0 -- -- 61
2017-09-09 19:00:00 16.6 11 Noroeste 32 Noroeste 0 -- -- 58
2017-09-09 18:00:00 17.9 13 Noroeste 34 Oeste 0 -- -- 53
2017-09-09 17:00:00 18.3 15 Norte 36 Norte 0.2 -- -- 57
2017-09-09 16:00:00 18 5 Oeste 26 Noroeste 0.2 -- -- 72
2017-09-09 15:00:00 16.6 8 Oeste 12 Sudoeste 0.6 -- -- 78
2017-09-09 14:00:00 15.9 9 Oeste 23 Sudoeste 0 -- -- 77
2017-09-09 13:00:00 15.1 10 Sudoeste 25 Sudoeste 0.6 -- -- 86
2017-09-09 12:00:00 14.7 9 Sudoeste 20 Oeste 0.4 -- -- 84
2017-09-09 11:00:00 15 10 Oeste 21 Oeste 0 -- -- 78
2017-09-09 10:00:00 14.6 9 Noroeste 29 Norte 0.2 -- -- 80
2017-09-09 09:00:00 14.7 7 Oeste 19 Oeste 0.8 -- -- 91
2017-09-09 08:00:00 15.5 9 Noroeste 14 Noroeste 0 -- -- 85
2017-09-09 07:00:00 15.7 6 Noroeste 10 Noroeste 0 -- -- 82
2017-09-09 06:00:00 16.2 5 Oeste 14 Oeste 0 -- -- 77
2017-09-09 05:00:00 15.8 7 Oeste 18 Oeste 0 -- -- 79
2017-09-09 04:00:00 15.6 4 Sudoeste 17 Sudoeste 0 -- -- 78
2017-09-09 03:00:00 15.8 10 Sudoeste 22 Sudoeste 0 -- -- 77
2017-09-09 02:00:00 16.6 8 Sudoeste 18 Sudoeste 0 -- -- 70
2017-09-09 01:00:00 17.4 4 Sudoeste 14 Sudoeste 0 -- -- 66
2017-09-09 00:00:00 18.4 3 Oeste 13 Sudoeste 0 -- -- 64
2017-09-08 23:00:00 19.9 6 Sur 23 Sur 0 -- -- 58
2017-09-08 22:00:00 20.5 3 Oeste 7 Sur 0 -- -- 57
2017-09-08 21:00:00 22.7 3 Sudeste 7 Noroeste 0 -- -- 47
2017-09-08 20:00:00 26.4 3 Oeste 6 Sudeste 0 -- -- 38
2017-09-08 19:00:00 28.1 3 Sudeste 10 Oeste 0 -- -- 29
2017-09-08 18:00:00 27.7 3 Sudoeste 13 Oeste 0 -- -- 30
2017-09-08 17:00:00 27 6 Oeste 9 Oeste 0 -- -- 33
2017-09-08 16:00:00 25.4 5 Oeste 10 Sur 0 -- -- 35
2017-09-08 15:00:00 23.7 3 Sudoeste 12 Oeste 0 -- -- 40
2017-09-08 14:00:00 21.5 7 Noroeste 17 Oeste 0 -- -- 46
2017-09-08 13:00:00 19.4 6 Noroeste 17 Oeste 0 -- -- 58
2017-09-08 12:00:00 17.5 10 Oeste 17 Oeste 0 -- -- 66
2017-09-08 11:00:00 15.2 9 Noroeste 18 Oeste 0 -- -- 75
2017-09-08 10:00:00 12.8 9 Oeste 16 Oeste 0 -- -- 84
2017-09-08 09:00:00 10.5 2 Noroeste 9 Oeste 0 -- -- 93
2017-09-08 08:00:00 9.9 3 Oeste 8 Oeste 0 -- -- 94
2017-09-08 07:00:00 10.1 3 Noroeste 5 Noroeste 0 -- -- 92
2017-09-08 06:00:00 10.9 0 Calma 3 Norte 0 -- -- 90
2017-09-08 05:00:00 11.9 0 Calma 10 Oeste 0 -- -- 86
2017-09-08 04:00:00 12.4 4 Sudoeste 12 Sudoeste 0 -- -- 84
2017-09-08 03:00:00 13.3 4 Oeste 12 Sudoeste 0 -- -- 81
2017-09-08 02:00:00 13.9 4 Sudoeste 13 Oeste 0 -- -- 79
2017-09-08 01:00:00 14.1 2 Oeste 12 Oeste 0 -- -- 78
2017-09-08 00:00:00 15.1 5 Sudoeste 12 Sudoeste 0 -- -- 75
2017-09-07 23:00:00 15.7 3 Sur 10 Sudoeste 0 -- -- 72
2017-09-07 22:00:00 17 4 Oeste 10 Oeste 0 -- -- 67
2017-09-07 21:00:00 18.5 4 Oeste 12 Noroeste 0 -- -- 61
2017-09-07 20:00:00 21 8 Noroeste 14 Oeste 0 -- -- 51
2017-09-07 19:00:00 22.4 9 Noroeste 17 Oeste 0 -- -- 45
2017-09-07 18:00:00 23.3 12 Noroeste 23 Noroeste 0 -- -- 43
2017-09-07 17:00:00 23.2 11 Oeste 22 Noroeste 0 -- -- 45
2017-09-07 16:00:00 23 11 Oeste 31 Oeste 0 -- -- 44
2017-09-07 15:00:00 21.7 14 Oeste 25 Oeste 0 -- -- 48
2017-09-07 14:00:00 20.5 12 Oeste 22 Oeste 0 -- -- 51
2017-09-07 13:00:00 19.3 8 Noroeste 22 Oeste 0 -- -- 55
2017-09-07 12:00:00 18 12 Oeste 21 Oeste 0 -- -- 61
2017-09-07 11:00:00 17.1 10 Oeste 21 Oeste 0 -- -- 63
2017-09-07 10:00:00 16.3 10 Oeste 16 Oeste 0 -- -- 66
2017-09-07 09:00:00 14 9 Oeste 15 Oeste 0 -- -- 73
2017-09-07 08:00:00 11.9 3 Noroeste 13 Oeste 0 -- -- 82
2017-09-07 07:00:00 12.9 5 Oeste 14 Oeste 0 -- -- 75
2017-09-07 06:00:00 13.1 5 Oeste 20 Sudoeste 0 -- -- 73
2017-09-07 05:00:00 13.5 6 Oeste 13 Sudoeste 0 -- -- 72
2017-09-07 04:00:00 14 8 Oeste 17 Oeste 0 -- -- 73
2017-09-07 03:00:00 14.4 8 Oeste 15 Noroeste 0 -- -- 72
2017-09-07 02:00:00 14.9 7 Oeste 12 Oeste 0 -- -- 73
2017-09-07 01:00:00 14.9 6 Oeste 12 Oeste 0 -- -- 71
2017-09-07 00:00:00 15.1 5 Oeste 12 Oeste 0 -- -- 71
2017-09-06 23:00:00 15.7 9 Oeste 14 Oeste 0 -- -- 70
2017-09-06 22:00:00 16.3 6 Oeste 19 Noroeste 0 -- -- 68
2017-09-06 21:00:00 17.1 10 Noroeste 20 Oeste 0 -- -- 65
2017-09-06 20:00:00 19 9 Noroeste 20 Norte 0 -- -- 58
2017-09-06 19:00:00 20.5 10 Noroeste 27 Norte 0 -- -- 57
2017-09-06 18:00:00 21.5 12 Norte 24 Norte 0 -- -- 55
2017-09-06 17:00:00 21.8 8 Noroeste 23 Norte 0 -- -- 57
2017-09-06 16:00:00 22.4 8 Noroeste 24 Noroeste 0 -- -- 58
2017-09-06 15:00:00 20.9 12 Norte 26 Norte 0 -- -- 63
2017-09-06 14:00:00 21.7 6 Oeste 22 Oeste 0 -- -- 66
2017-09-06 13:00:00 19.9 12 Noroeste 24 Norte 0 -- -- 76
2017-09-06 12:00:00 21.4 8 Noroeste 18 Noroeste 0 -- -- 66
2017-09-06 11:00:00 19.3 10 Oeste 20 Oeste 0 -- -- 75
2017-09-06 10:00:00 18.5 10 Oeste 17 Oeste 0 -- -- 76
2017-09-06 09:00:00 17.4 7 Oeste 19 Sudoeste 0 -- -- 79
2017-09-06 08:00:00 16.7 9 Oeste 18 Oeste 0 -- -- 82
2017-09-06 07:00:00 16.5 8 Sudoeste 19 Sudoeste 0 -- -- 84
2017-09-06 06:00:00 16.5 8 Oeste 19 Oeste 0 -- -- 84
2017-09-06 05:00:00 16.9 6 Sudoeste 19 Oeste 0 -- -- 83
2017-09-06 04:00:00 17.3 9 Oeste 21 Sudoeste 0 -- -- 81
2017-09-06 03:00:00 17.8 10 Oeste 17 Oeste 0 -- -- 79
2017-09-06 02:00:00 18.3 6 Oeste 17 Oeste 0 -- -- 76
2017-09-06 01:00:00 19.3 5 Oeste 13 Sudoeste 0 -- -- 68
2017-09-06 00:00:00 20.4 5 Sudoeste 15 Oeste 0 -- -- 67
2017-09-05 23:00:00 20.7 8 Noroeste 22 Noroeste 0 -- -- 63
2017-09-05 22:00:00 21.3 8 Oeste 16 Sudoeste 0 -- -- 68
2017-09-05 21:00:00 23.1 3 Sudoeste 13 Oeste 0 -- -- 63
2017-09-05 20:00:00 25.7 9 Oeste 24 Norte 0 -- -- 56
2017-09-05 19:00:00 26.9 12 Norte 28 Nordeste 0 -- -- 53
2017-09-05 18:00:00 29.3 11 Norte 26 Norte 0 -- -- 47
2017-09-05 17:00:00 30.3 9 Noroeste 23 Norte 0 -- -- 44
2017-09-05 16:00:00 29.6 7 Este 18 Sudeste 0 -- -- 40
2017-09-05 15:00:00 28 10 Sudeste 22 Sudeste 0 -- -- 44
2017-09-05 14:00:00 26.6 10 Este 23 Este 0 -- -- 50
2017-09-05 13:00:00 24.7 10 Este 20 Este 0 -- -- 59
2017-09-05 12:00:00 22.7 10 Este 19 Este 0 -- -- 66
2017-09-05 11:00:00 19.9 6 Este 13 Sudeste 0 -- -- 77
2017-09-05 10:00:00 17 3 Norte 6 Noroeste 0 -- -- 87
2017-09-05 09:00:00 15.2 2 Noroeste 6 Oeste 0 -- -- 94
2017-09-05 08:00:00 14.1 2 Oeste 4 Oeste 0 -- -- 95
2017-09-05 07:00:00 14.3 2 Oeste 8 Noroeste 0 -- -- 94
2017-09-05 06:00:00 14.9 0 Calma 5 Sudoeste 0 -- -- 92
2017-09-05 05:00:00 15.4 3 Sudoeste 6 Sudoeste 0 -- -- 90
2017-09-05 04:00:00 16.3 3 Oeste 7 Oeste 0 -- -- 88
2017-09-05 03:00:00 17 3 Sur 9 Sudoeste 0 -- -- 83
2017-09-05 02:00:00 18.1 0 Calma 5 Nordeste 0 -- -- 78
2017-09-05 01:00:00 18.7 2 Noroeste 5 Nordeste 0 -- -- 78
2017-09-05 00:00:00 20.2 3 Nordeste 19 Este 0 -- -- 71
2017-09-04 23:00:00 21.6 9 Este 21 Este 0 -- -- 64
2017-09-04 22:00:00 22.1 8 Este 15 Sudeste 0 -- -- 63
2017-09-04 21:00:00 23.8 4 Sudeste 9 Este 0 -- -- 57
2017-09-04 20:00:00 25.9 6 Nordeste 18 Este 0 -- -- 50
2017-09-04 19:00:00 27.5 10 Este 19 Este 0 -- -- 44
2017-09-04 18:00:00 26.1 4 Nordeste 12 Este 0 -- -- 46
2017-09-04 17:00:00 26.6 5 Este 13 Este 0 -- -- 44
2017-09-04 16:00:00 27.5 6 Este 14 Este 0 -- -- 42
2017-09-04 15:00:00 26.6 5 Sudoeste 13 Oeste 0 -- -- 46
2017-09-04 14:00:00 25.4 4 Noroeste 13 Oeste 0 -- -- 49
2017-09-04 13:00:00 24.5 5 Oeste 14 Oeste 0 -- -- 51
2017-09-04 12:00:00 22.5 4 Oeste 11 Oeste 0 -- -- 62
2017-09-04 11:00:00 20.9 4 Noroeste 14 Oeste 0 -- -- 70
2017-09-04 10:00:00 19.1 5 Oeste 12 Oeste 0 -- -- 73
2017-09-04 09:00:00 17.5 2 Oeste 12 Sudoeste 0 -- -- 79
2017-09-04 08:00:00 16.8 3 Oeste 18 Sudoeste 0 -- -- 78
2017-09-04 07:00:00 17.1 8 Sudoeste 16 Sudoeste 0 -- -- 78
2017-09-04 06:00:00 16.9 9 Sudoeste 20 Sudoeste 0 -- -- 79
2017-09-04 05:00:00 17.1 7 Sudoeste 17 Sudoeste 0 -- -- 77
2017-09-04 04:00:00 17.3 5 Oeste 10 Oeste 0 -- -- 80
2017-09-04 03:00:00 17.7 4 Oeste 10 Este 0 -- -- 74
2017-09-04 02:00:00 19.2 2 Este 10 Sudeste 0 -- -- 67
2017-09-04 01:00:00 20.3 5 Este 15 Sudeste 0 -- -- 59
2017-09-04 00:00:00 21.1 6 Este 19 Sudeste 0 -- -- 53
2017-09-03 23:00:00 21.9 9 Este 15 Este 0 -- -- 47
2017-09-03 22:00:00 23.1 9 Este 18 Este 0 -- -- 43
2017-09-03 21:00:00 23.5 4 Este 12 Este 0 -- -- 44
2017-09-03 20:00:00 25.1 5 Este 12 Este 0 -- -- 40
2017-09-03 19:00:00 26.4 4 Este 9 Sudeste 0 -- -- 36
2017-09-03 18:00:00 26.9 6 Este 13 Sudeste 0 -- -- 34
2017-09-03 17:00:00 26.8 4 Sudeste 12 Este 0 -- -- 34
2017-09-03 16:00:00 26.7 3 Sudeste 12 Sudeste 0 -- -- 32
2017-09-03 15:00:00 25.8 5 Este 11 Este 0 -- -- 34
2017-09-03 14:00:00 24.1 4 Este 14 Nordeste 0 -- -- 37
2017-09-03 13:00:00 22 3 Este 13 Este 0 -- -- 50
2017-09-03 12:00:00 19.8 4 Nordeste 8 Este 0 -- -- 60
2017-09-03 11:00:00 16.9 2 Este 6 Este 0 -- -- 71
2017-09-03 10:00:00 14.6 4 Noroeste 6 Noroeste 0 -- -- 81
2017-09-03 09:00:00 13.3 3 Oeste 6 Oeste 0 -- -- 88
2017-09-03 08:00:00 12.9 0 Calma 6 Noroeste 0 -- -- 89
2017-09-03 07:00:00 13 0 Calma 7 Oeste 0 -- -- 90
2017-09-03 06:00:00 13 2 Noroeste 5 Noroeste 0 -- -- 90
2017-09-03 05:00:00 13 4 Oeste 6 Oeste 0 -- -- 90
2017-09-03 04:00:00 13.1 3 Oeste 6 Oeste 0 -- -- 90
2017-09-03 03:00:00 13.4 3 Oeste 6 Sudoeste 0 -- -- 87
2017-09-03 02:00:00 14.2 2 Sudoeste 4 Sudoeste 0 -- -- 81
2017-09-03 01:00:00 15.6 0 Calma 8 Este 0 -- -- 72
2017-09-03 00:00:00 16.4 3 Este 9 Nordeste 0 -- -- 69
2017-09-02 23:00:00 17.3 5 Este 8 Este 0 -- -- 65
2017-09-02 22:00:00 19 4 Este 15 Sudeste 0 -- -- 63
2017-09-02 21:00:00 20.7 3 Sudeste 6 Sudeste 0 -- -- 55
2017-09-02 20:00:00 23.6 2 Sur 9 Este 0 -- -- 40
2017-09-02 19:00:00 24.7 3 Noroeste 12 Oeste 0 -- -- 38
2017-09-02 18:00:00 24.7 5 Noroeste 13 Norte 0 -- -- 39
2017-09-02 17:00:00 23.9 6 Nordeste 11 Nordeste 0 -- -- 38
2017-09-02 16:00:00 23.1 5 Noroeste 14 Este 0 -- -- 35
2017-09-02 15:00:00 21.9 6 Nordeste 11 Norte 0 -- -- 36
2017-09-02 14:00:00 20.4 4 Noroeste 15 Noroeste 0 -- -- 36
2017-09-02 13:00:00 19.2 7 Oeste 18 Oeste 0 -- -- 48
2017-09-02 12:00:00 17.6 9 Oeste 19 Oeste 0 -- -- 56
2017-09-02 11:00:00 16.2 10 Noroeste 21 Noroeste 0 -- -- 62
2017-09-02 10:00:00 15.3 9 Oeste 19 Oeste 0 -- -- 69
2017-09-02 09:00:00 13.6 5 Noroeste 18 Oeste 0 -- -- 81
2017-09-02 08:00:00 11.6 3 Noroeste 8 Oeste 0 -- -- 89
2017-09-02 07:00:00 11.9 3 Oeste 9 Noroeste 0 -- -- 87
2017-09-02 06:00:00 12.8 6 Oeste 17 Sudoeste 0 -- -- 83
2017-09-02 05:00:00 12.7 4 Noroeste 9 Oeste 0 -- -- 86
2017-09-02 04:00:00 12.9 0 Calma 17 Oeste 0 -- -- 84
2017-09-02 03:00:00 14.1 9 Oeste 19 Oeste 0 -- -- 74
2017-09-02 02:00:00 14.5 10 Oeste 21 Oeste 0 -- -- 73
2017-09-02 01:00:00 14.7 9 Oeste 18 Sudoeste 0 -- -- 75
2017-09-02 00:00:00 14.7 5 Oeste 20 Noroeste 0 -- -- 74
2017-09-01 23:00:00 15.3 10 Oeste 19 Oeste 0 -- -- 72
2017-09-01 22:00:00 15.6 8 Noroeste 16 Noroeste 0 -- -- 71
2017-09-01 21:00:00 16.8 10 Noroeste 26 Noroeste 0 -- -- 63
2017-09-01 20:00:00 18.5 10 Noroeste 32 Noroeste 0 -- -- 53
2017-09-01 19:00:00 19.3 15 Noroeste 26 Noroeste 0 -- -- 52
2017-09-01 18:00:00 20.8 12 Norte 31 Norte 0 -- -- 53
2017-09-01 17:00:00 21.2 10 Norte 23 Norte 0 -- -- 46
2017-09-01 16:00:00 22.6 8 Noroeste 20 Noroeste 0 -- -- 39
2017-09-01 15:00:00 22 7 Oeste 20 Oeste 0 -- -- 40
2017-09-01 14:00:00 20.4 9 Noroeste 22 Oeste 0 -- -- 43
2017-09-01 13:00:00 19.2 8 Noroeste 20 Oeste 0 -- -- 59
2017-09-01 12:00:00 18.1 9 Oeste 18 Oeste 0 -- -- 63
2017-09-01 11:00:00 16.5 9 Oeste 18 Oeste 0 -- -- 72
2017-09-01 10:00:00 15.1 8 Oeste 14 Oeste 0 -- -- 76
2017-09-01 09:00:00 12.9 5 Noroeste 11 Sudoeste 0 -- -- 84
2017-09-01 08:00:00 11.5 2 Oeste 10 Sudoeste 0 -- -- 89
2017-09-01 07:00:00 11.9 4 Sudoeste 15 Sudoeste 0 -- -- 86
2017-09-01 06:00:00 12.1 6 Sudoeste 13 Sudoeste 0 -- -- 86
2017-09-01 05:00:00 12.6 6 Sudoeste 14 Sudoeste 0 -- -- 85
2017-09-01 04:00:00 13 5 Sudoeste 9 Sudoeste 0 -- -- 85
2017-09-01 03:00:00 13.4 5 Sudoeste 15 Sudoeste 0 -- -- 85
2017-09-01 02:00:00 13.8 6 Sudoeste 12 Sudoeste 0 -- -- 84
2017-09-01 01:00:00 14.4 3 Sudoeste 12 Sudoeste 0 -- -- 83
2017-09-01 00:00:00 15.5 2 Sudoeste 12 Sudoeste 0 -- -- 78
2017-08-31 23:00:00 16.5 6 Sudoeste 12 Sur 0 -- -- 72
2017-08-31 22:00:00 17.1 3 Oeste 11 Oeste 0 -- -- 64
2017-08-31 21:00:00 17.8 6 Norte 17 Norte 0 -- -- 62
2017-08-31 20:00:00 19.3 6 Norte 19 Norte 0 -- -- 59
2017-08-31 19:00:00 20.2 7 Nordeste 13 Nordeste 0 -- -- 56
2017-08-31 18:00:00 21.5 5 Oeste 12 Oeste 0 -- -- 51
2017-08-31 17:00:00 21.9 5 Oeste 14 Norte 0 -- -- 52
2017-08-31 16:00:00 21.4 6 Norte 15 Noroeste 0 -- -- 54
2017-08-31 15:00:00 21.1 7 Oeste 17 Oeste 0 -- -- 55
2017-08-31 14:00:00 20.5 7 Oeste 17 Sudoeste 0 -- -- 60
2017-08-31 13:00:00 19.4 8 Noroeste 17 Noroeste 0 -- -- 62
2017-08-31 12:00:00 17.5 8 Sudoeste 19 Oeste 0 -- -- 70
2017-08-31 11:00:00 16 8 Sudoeste 21 Sudoeste 0 -- -- 77
2017-08-31 10:00:00 14.7 8 Sudoeste 16 Sur 0 -- -- 85
2017-08-31 09:00:00 14 5 Sudoeste 14 Oeste 0 -- -- 89
2017-08-31 08:00:00 13.8 9 Oeste 19 Oeste 0 -- -- 89
2017-08-31 07:00:00 14 8 Oeste 17 Sudoeste 0 -- -- 89
2017-08-31 06:00:00 14 8 Oeste 17 Oeste 0 -- -- 89
2017-08-31 05:00:00 14.1 9 Oeste 18 Sudoeste 0 -- -- 92
2017-08-31 04:00:00 14.1 7 Oeste 17 Oeste 0 -- -- 92
2017-08-31 03:00:00 14.6 10 Oeste 18 Oeste 1.4 -- -- 91
2017-08-31 02:00:00 14.9 8 Oeste 14 Oeste 0.8 -- -- 89
2017-08-31 01:00:00 15.7 6 Oeste 15 Oeste 0 -- -- 90
2017-08-31 00:00:00 16.2 5 Norte 17 Oeste 0.4 -- -- 88
2017-08-30 23:00:00 16.5 8 Sudoeste 20 Sudoeste 4.4 -- -- 94
2017-08-30 22:00:00 16.9 9 Sudoeste 21 Oeste 4.6 -- -- 90
2017-08-30 21:00:00 19 12 Noroeste 36 Norte 0 -- -- 77
2017-08-30 20:00:00 21.2 14 Norte 35 Norte 0 -- -- 70
2017-08-30 19:00:00 22.9 9 Nordeste 25 Este 0 -- -- 57
2017-08-30 18:00:00 24.3 6 Este 25 Sudeste 0.2 -- -- 59
2017-08-30 17:00:00 25.7 14 Sudeste 27 Sudeste 0 -- -- 54
2017-08-30 16:00:00 26.5 8 Sudeste 19 Sudeste 0 -- -- 51
2017-08-30 15:00:00 26.1 8 Sudeste 15 Sudeste 0 -- -- 49
2017-08-30 14:00:00 24.9 5 Este 17 Este 0 -- -- 59
2017-08-30 13:00:00 23.1 4 Este 10 Este 0 -- -- 66
2017-08-30 12:00:00 21.6 4 Sudeste 10 Nordeste 0 -- -- 72
2017-08-30 11:00:00 19.5 5 Este 12 Este 0 -- -- 81
2017-08-30 10:00:00 18.3 3 Norte 5 Nordeste 0 -- -- 89
2017-08-30 09:00:00 17.1 0 Calma 6 Sudoeste 0 -- -- 94
2017-08-30 08:00:00 16.5 3 Oeste 5 Noroeste 0 -- -- 96
2017-08-30 07:00:00 16.2 3 Oeste 5 Oeste 0 -- -- 96
2017-08-30 06:00:00 16.1 2 Sudeste 5 Este 0 -- -- 94
2017-08-30 05:00:00 16.4 0 Calma 5 Sudoeste 0 -- -- 93
2017-08-30 04:00:00 17 2 Sur 5 Este 0 -- -- 90
2017-08-30 03:00:00 17.4 3 Este 6 Sudeste 0 -- -- 89
2017-08-30 02:00:00 17.9 0 Calma 5 Sur 0 -- -- 86
2017-08-30 01:00:00 18.4 3 Sudeste 7 Este 0 -- -- 82
2017-08-30 00:00:00 18.7 2 Este 11 Este 0 -- -- 79
2017-08-29 23:00:00 19.3 4 Este 10 Este 0 -- -- 76
2017-08-29 22:00:00 20.6 2 Sudoeste 14 Nordeste 0 -- -- 75
2017-08-29 21:00:00 21.9 8 Este 21 Este 0 -- -- 70
2017-08-29 20:00:00 22 6 Este 12 Este 0.2 -- -- 77
2017-08-29 19:00:00 22.7 5 Sudeste 30 Este 0.6 -- -- 75
2017-08-29 18:00:00 24.2 17 Este 31 Este 0 -- -- 61
2017-08-29 17:00:00 26.3 15 Este 28 Este 0 -- -- 50
2017-08-29 16:00:00 25.2 10 Este 23 Este 0 -- -- 58
2017-08-29 15:00:00 23.8 14 Este 24 Este 0 -- -- 66
2017-08-29 14:00:00 22 5 Este 15 Este 0 -- -- 73
2017-08-29 13:00:00 20.1 3 Este 10 Nordeste 0 -- -- 78
2017-08-29 12:00:00 18.3 4 Este 12 Este 0 -- -- 84
2017-08-29 11:00:00 17.1 6 Este 11 Sudeste 0 -- -- 89
2017-08-29 10:00:00 16.8 5 Este 9 Este 0 -- -- 90
2017-08-29 09:00:00 16.2 2 Sur 11 Oeste 0 -- -- 91
2017-08-29 08:00:00 16.1 0 Calma 8 Sudeste 0 -- -- 95
2017-08-29 07:00:00 16.1 3 Sudeste 14 Este 0 -- -- 96
2017-08-29 06:00:00 16.1 6 Este 15 Sudeste 0 -- -- 96
2017-08-29 05:00:00 16 5 Este 22 Este 0 -- -- 96
2017-08-29 04:00:00 16.3 7 Este 18 Este 0 -- -- 96
2017-08-29 03:00:00 16.4 4 Este 8 Este 0 -- -- 96
2017-08-29 02:00:00 16.7 0 Calma 5 Este 0.2 -- -- 94
2017-08-29 01:00:00 17 0 Calma 13 Sudoeste 0.2 -- -- 93
2017-08-29 00:00:00 16.9 4 Este 8 Nordeste 0.8 -- -- 95
2017-08-28 23:00:00 17.2 3 Noroeste 15 Oeste 2.2 -- -- 93
2017-08-28 22:00:00 17.5 0 Calma 11 Oeste 0.4 -- -- 93
2017-08-28 21:00:00 17.4 6 Noroeste 16 Oeste 0 -- -- 93
2017-08-28 20:00:00 17.7 7 Oeste 14 Oeste 0.2 -- -- 94
2017-08-28 19:00:00 18 5 Noroeste 27 Sudoeste 0.2 -- -- 93
2017-08-28 18:00:00 17.8 16 Oeste 32 Sudoeste 3 -- -- 90
2017-08-28 17:00:00 20.1 16 Oeste 36 Oeste 0.4 -- -- 84
2017-08-28 16:00:00 21.4 5 Sudoeste 18 Oeste 1.2 -- -- 84
2017-08-28 15:00:00 22.5 6 Noroeste 21 Oeste 0 -- -- 77
2017-08-28 14:00:00 21.6 3 Norte 9 Sudeste 0 -- -- 81
2017-08-28 13:00:00 20.6 6 Sudeste 15 Este 0.6 -- -- 87
2017-08-28 12:00:00 18.7 4 Sudeste 18 Sudeste 4.4 -- -- 94
2017-08-28 11:00:00 18.9 7 Este 24 Sudeste 0.4 -- -- 93
2017-08-28 10:00:00 18 8 Nordeste 14 Nordeste 0.8 -- -- 94
2017-08-28 09:00:00 18.2 6 Este 14 Este 0 -- -- 92
2017-08-28 08:00:00 18.4 6 Este 11 Sudeste 0 -- -- 91
2017-08-28 07:00:00 18.7 6 Este 13 Este 0 -- -- 90
2017-08-28 06:00:00 18.6 4 Sudeste 23 Sudeste 0 -- -- 90
2017-08-28 05:00:00 18.8 11 Este 24 Este 0 -- -- 90
2017-08-28 04:00:00 18.9 11 Este 29 Este 0 -- -- 91
2017-08-28 03:00:00 18.9 10 Este 22 Este 0 -- -- 91
2017-08-28 02:00:00 19.1 12 Este 30 Este 0 -- -- 91
2017-08-28 01:00:00 19.2 16 Este 30 Sudeste 0 -- -- 91
2017-08-28 00:00:00 19.2 15 Este 24 Este 0 -- -- 90
2017-08-27 23:00:00 19.6 8 Este 27 Este 0 -- -- 89
2017-08-27 22:00:00 20.1 14 Este 31 Este 0 -- -- 88
2017-08-27 21:00:00 20.3 20 Este 38 Este 0 -- -- 86
2017-08-27 20:00:00 20.6 18 Este 32 Sudeste 0 -- -- 82
2017-08-27 19:00:00 20.8 8 Este 19 Nordeste 0 -- -- 78
2017-08-27 18:00:00 20.5 10 Sudeste 18 Este 0 -- -- 79
2017-08-27 17:00:00 19.7 2 Este 18 Sudoeste 3.6 -- -- 86
2017-08-27 16:00:00 18.6 15 Sudoeste 31 Oeste 8 -- -- 88
2017-08-27 15:00:00 21.9 9 Oeste 22 Sudoeste 0.2 -- -- 80
2017-08-27 14:00:00 23.5 8 Noroeste 17 Oeste 0.6 -- -- 72
2017-08-27 13:00:00 24.4 4 Sur 10 Sudeste 0 -- -- 58
2017-08-27 12:00:00 23.5 4 Sur 13 Sudoeste 0 -- -- 62
2017-08-27 11:00:00 23.3 3 Este 12 Este 0 -- -- 64
2017-08-27 10:00:00 22.9 7 Este 14 Este 0 -- -- 62
2017-08-27 09:00:00 22 4 Sudeste 9 Sudeste 0 -- -- 66
2017-08-27 08:00:00 21.4 0 Calma 18 Este 0 -- -- 68
2017-08-27 07:00:00 21.7 11 Este 27 Este 0 -- -- 65
2017-08-27 06:00:00 22.3 14 Sudeste 31 Este 0 -- -- 61
2017-08-27 05:00:00 22.9 14 Este 33 Este 0 -- -- 59
2017-08-27 04:00:00 23.1 15 Este 34 Sudeste 0 -- -- 58
2017-08-27 03:00:00 23.7 14 Este 32 Este 0 -- -- 54
2017-08-27 02:00:00 24.5 16 Este 31 Sudeste 0 -- -- 51
2017-08-27 01:00:00 25.4 18 Este 37 Sudeste 0 -- -- 49
2017-08-27 00:00:00 26.7 14 Este 28 Sudeste 0 -- -- 44
2017-08-26 23:00:00 27.7 4 Sudeste 11 Sudeste 0 -- -- 30
2017-08-26 22:00:00 29.5 6 Sur 24 Sur 0 -- -- 26
2017-08-26 21:00:00 29.9 4 Sudoeste 12 Sur 0 -- -- 25
2017-08-26 20:00:00 31.6 4 Sur 23 Oeste 0 -- -- 26
2017-08-26 19:00:00 31.2 8 Sudoeste 20 Sudoeste 0 -- -- 22
2017-08-26 18:00:00 31.7 0 Calma 14 Este 0 -- -- 33
2017-08-26 17:00:00 31.6 6 Nordeste 14 Este 0 -- -- 34
2017-08-26 16:00:00 30.2 7 Este 15 Este 0 -- -- 44
2017-08-26 15:00:00 29.3 7 Este 19 Este 0 -- -- 46
2017-08-26 14:00:00 28.7 14 Este 28 Sudeste 0 -- -- 51
2017-08-26 13:00:00 26.6 12 Este 24 Sudeste 0 -- -- 57
2017-08-26 12:00:00 22.7 4 Este 10 Nordeste 0 -- -- 67
2017-08-26 11:00:00 19.8 4 Noroeste 9 Noroeste 0 -- -- 78
2017-08-26 10:00:00 18.5 3 Noroeste 5 Noroeste 0 -- -- 81
2017-08-26 09:00:00 17.2 3 Noroeste 6 Noroeste 0 -- -- 86
2017-08-26 08:00:00 16.1 2 Noroeste 5 Noroeste 0 -- -- 92
2017-08-26 07:00:00 16.7 2 Oeste 5 Noroeste 0 -- -- 91
2017-08-26 06:00:00 17.6 3 Noroeste 10 Sudoeste 0 -- -- 87
2017-08-26 05:00:00 18.1 5 Sudoeste 10 Sudoeste 0 -- -- 84
2017-08-26 04:00:00 18.7 5 Sudoeste 10 Oeste 0 -- -- 82
2017-08-26 03:00:00 19.6 4 Oeste 14 Oeste 0 -- -- 80
2017-08-26 02:00:00 20.3 5 Sudoeste 15 Sudoeste 0 -- -- 77
2017-08-26 01:00:00 21.3 6 Sudoeste 19 Sudoeste 0 -- -- 73
2017-08-26 00:00:00 22.8 7 Sudoeste 23 Sudoeste 0 -- -- 67
2017-08-25 23:00:00 25.8 10 Sudoeste 21 Sudeste 0 -- -- 55
2017-08-25 22:00:00 29.6 14 Este 31 Este 0 -- -- 42
2017-08-25 21:00:00 30.8 9 Este 21 Este 0 -- -- 38
2017-08-25 20:00:00 32.1 13 Este 26 Este 0 -- -- 32
2017-08-25 19:00:00 33.3 10 Este 23 Este 0 -- -- 30
2017-08-25 18:00:00 33.5 12 Este 22 Este 0 -- -- 29
2017-08-25 17:00:00 33 10 Este 22 Este 0 -- -- 30
2017-08-25 16:00:00 31.7 11 Este 22 Este 0 -- -- 35
2017-08-25 15:00:00 30.4 13 Este 27 Este 0 -- -- 41
2017-08-25 14:00:00 28.1 13 Este 29 Este 0 -- -- 45
2017-08-25 13:00:00 26.6 14 Este 29 Sudeste 0 -- -- 51
2017-08-25 12:00:00 24.5 11 Este 20 Este 0 -- -- 57
2017-08-25 11:00:00 22.6 10 Este 17 Este 0 -- -- 65
2017-08-25 10:00:00 19.9 2 Nordeste 4 Este 0 -- -- 79
2017-08-25 09:00:00 17.2 0 Calma 3 Noroeste 0 -- -- 89
2017-08-25 08:00:00 16 0 Calma 3 Sudeste 0 -- -- 90
2017-08-25 07:00:00 16.3 0 Calma 5 Este 0 -- -- 89
2017-08-25 06:00:00 17.1 3 Este 5 Sudeste 0 -- -- 87
2017-08-25 05:00:00 18.3 3 Oeste 8 Sudoeste 0 -- -- 83
2017-08-25 04:00:00 19 5 Sudoeste 11 Sudoeste 0 -- -- 81
2017-08-25 03:00:00 19.8 6 Sudoeste 16 Oeste 0 -- -- 78
2017-08-25 02:00:00 20 10 Oeste 21 Oeste 0 -- -- 78
2017-08-25 01:00:00 20.2 10 Oeste 20 Sudoeste 0 -- -- 77
2017-08-25 00:00:00 20.8 10 Sudoeste 29 Sudoeste 0 -- -- 75
2017-08-24 23:00:00 21.6 12 Sudoeste 30 Sudoeste 0 -- -- 72
2017-08-24 22:00:00 23.6 9 Sudoeste 31 Sudoeste 0 -- -- 65
2017-08-24 21:00:00 29.8 5 Norte 23 Nordeste 0 -- -- 45
2017-08-24 20:00:00 31.4 11 Nordeste 27 Este 0 -- -- 40
2017-08-24 19:00:00 31.4 14 Este 29 Este 0 -- -- 40
2017-08-24 18:00:00 31.4 18 Este 36 Este 0 -- -- 41
2017-08-24 17:00:00 31.8 18 Este 41 Sudeste 0 -- -- 41
2017-08-24 16:00:00 30.8 18 Este 36 Este 0 -- -- 45
2017-08-24 15:00:00 29.8 18 Este 37 Sudeste 0 -- -- 47
2017-08-24 14:00:00 28 23 Este 39 Este 0 -- -- 52
2017-08-24 13:00:00 26.6 19 Este 35 Este 0 -- -- 55
2017-08-24 12:00:00 24.8 13 Este 28 Este 0 -- -- 59
2017-08-24 11:00:00 23 14 Sudeste 24 Este 0 -- -- 62
2017-08-24 10:00:00 21.7 13 Este 31 Este 0 -- -- 65
2017-08-24 09:00:00 20.1 14 Este 32 Este 0 -- -- 68
2017-08-24 08:00:00 19 11 Este 24 Este 0 -- -- 72
2017-08-24 07:00:00 18.7 8 Este 17 Sudeste 0 -- -- 74
2017-08-24 06:00:00 18.8 2 Sudeste 8 Sudeste 0 -- -- 74
2017-08-24 05:00:00 19.8 0 Calma 21 Este 0 -- -- 74
2017-08-24 04:00:00 20.6 6 Sudeste 14 Sudeste 0 -- -- 68
2017-08-24 03:00:00 21 4 Sudeste 18 Este 0 -- -- 66
2017-08-24 02:00:00 22 10 Este 33 Este 0 -- -- 64
2017-08-24 01:00:00 23.7 17 Este 33 Este 0 -- -- 67
2017-08-24 00:00:00 24.2 7 Este 21 Este 0 -- -- 64
2017-08-23 23:00:00 25.1 8 Este 30 Sudeste 0 -- -- 56
2017-08-23 22:00:00 26.3 15 Este 29 Sudeste 0 -- -- 50
2017-08-23 21:00:00 27.3 4 Noroeste 23 Sudeste 0 -- -- 47
2017-08-23 20:00:00 29.3 14 Este 31 Este 0 -- -- 41
2017-08-23 19:00:00 30.9 12 Este 24 Este 0 -- -- 41
2017-08-23 18:00:00 30.9 17 Este 27 Este 0 -- -- 40
2017-08-23 17:00:00 29.8 11 Este 22 Sudeste 0.2 -- -- 43
2017-08-23 16:00:00 30.2 7 Este 18 Este 0 -- -- 38
2017-08-23 15:00:00 30.5 9 Este 21 Sudeste 0 -- -- 35
2017-08-23 14:00:00 28.9 10 Nordeste 19 Nordeste 0 -- -- 32
2017-08-23 13:00:00 27.9 8 Este 15 Este 0 -- -- 35
2017-08-23 12:00:00 24.2 3 Oeste 13 Noroeste 0 -- -- 51
2017-08-23 11:00:00 22.7 6 Noroeste 14 Sudoeste 0 -- -- 57
2017-08-23 10:00:00 21.7 8 Oeste 17 Noroeste 0 -- -- 60
2017-08-23 09:00:00 20 9 Oeste 18 Oeste 0 -- -- 64
2017-08-23 08:00:00 18.6 5 Sudoeste 11 Sudoeste 0 -- -- 64
2017-08-23 07:00:00 19.1 6 Sudoeste 14 Oeste 0 -- -- 62
2017-08-23 06:00:00 19.9 6 Oeste 17 Sudoeste 0 -- -- 61
2017-08-23 05:00:00 20.3 7 Sudoeste 17 Oeste 0 -- -- 59
2017-08-23 04:00:00 21.3 9 Sudoeste 17 Sur 0 -- -- 54
2017-08-23 03:00:00 22.2 7 Sudoeste 22 Oeste 0 -- -- 51
2017-08-23 02:00:00 22.9 8 Sudoeste 21 Sudoeste 0 -- -- 48
2017-08-23 01:00:00 23.8 8 Sudoeste 22 Sudoeste 0 -- -- 44
2017-08-23 00:00:00 24.2 10 Sudoeste 22 Sudoeste 0 -- -- 45
2017-08-22 23:00:00 25.3 12 Sudoeste 24 Sudoeste 0 -- -- 43
2017-08-22 22:00:00 27.2 6 Sudoeste 14 Sudoeste 0 -- -- 40
2017-08-22 21:00:00 29.2 3 Sudoeste 24 Noroeste 0 -- -- 40
2017-08-22 20:00:00 30.4 13 Norte 32 Norte 0 -- -- 39
2017-08-22 19:00:00 34 13 Norte 31 Norte 0 -- -- 36
2017-08-22 18:00:00 35.3 8 Este 23 Este 0 -- -- 32
2017-08-22 17:00:00 34.8 11 Este 27 Sudeste 0 -- -- 34
2017-08-22 16:00:00 33.9 12 Este 25 Sudeste 0 -- -- 35
2017-08-22 15:00:00 32.2 10 Este 25 Este 0 -- -- 38
2017-08-22 14:00:00 30.6 8 Sudeste 24 Este 0 -- -- 44
2017-08-22 13:00:00 28.5 12 Este 25 Este 0 -- -- 50
2017-08-22 12:00:00 26.4 14 Este 26 Este 0 -- -- 57
2017-08-22 11:00:00 24.9 14 Este 28 Sudeste 0 -- -- 62
2017-08-22 10:00:00 23.4 17 Este 29 Sudeste 0 -- -- 67
2017-08-22 09:00:00 22 11 Sudeste 22 Este 0 -- -- 68
2017-08-22 08:00:00 21.2 10 Este 23 Sudeste 0 -- -- 68
2017-08-22 07:00:00 21.4 12 Este 22 Este 0 -- -- 63
2017-08-22 06:00:00 22 8 Este 24 Sudeste 0 -- -- 57
2017-08-22 05:00:00 22.6 14 Este 37 Este 0 -- -- 52
2017-08-22 04:00:00 23.1 14 Este 28 Sudeste 0 -- -- 47
2017-08-22 03:00:00 24.2 17 Este 31 Este 0 -- -- 43
2017-08-22 02:00:00 24.9 12 Este 25 Este 0 -- -- 37
2017-08-22 01:00:00 25.7 15 Este 28 Sudeste 0 -- -- 34
2017-08-22 00:00:00 26.4 10 Este 19 Sudeste 0 -- -- 33